Fu Ning Wan — VRDN9 — position and weather

sailwx.info

Track history (hours):
 
Tides and Currents Weather Stations Pressure Air Temp Water Temp Dewpoint Dewpoint Depression Visibility Wind Speed Wind Dir Waves Ship Positions

Fu Ning Wan

Last reported at 2017-Jun-04 13:17 UTC. Time now 2017-Jul-24 04:53 UTC.
Position N 01°13' E 103°55'.
Warning: this ship's position is 49 days out of date.

Length 102 m; draft 6.1 m.

Type: Tanker. MMSI: 477003600.

Date/timePositionNaut miles runAvg speedWind from/ knotsBaromVisibWave heightAir tempDewpointWater temp
2017-Jun-04 13:17N 01°13' E 103°55'311.4
2017-Jun-04 13:00N 01°12' E 103°52'510.7
2017-Jun-04 12:30N 01°09' E 103°47'5 9.9
2017-Jun-04 11:57N 01°05' E 103°43'511.0
2017-Jun-04 11:30N 01°02' E 103°39'611.2
2017-Jun-04 10:59N 01°06' E 103°34'4 8.3
2017-Jun-04 10:28N 01°10' E 103°34'4 9.3
2017-Jun-04 10:00N 01°11' E 103°38'3 6.8
2017-Jun-04 09:30N 01°14' E 103°39'3 6.9
2017-Jun-04 09:00N 01°18' E 103°41'1 2.3
2017-Jun-04 08:28N 01°18' E 103°42'0 0.0
2017-Jun-04 07:55N 01°18' E 103°42'0 0.0
2017-Jun-04 07:22N 01°18' E 103°42'0 0.0
2017-Jun-04 06:58N 01°18' E 103°42'0 0.0
2017-Jun-04 06:25N 01°18' E 103°42'0 0.0
2017-Jun-04 05:58N 01°18' E 103°42'0 0.0
2017-Jun-04 05:28N 01°18' E 103°42'0 0.0
2017-Jun-04 04:58N 01°18' E 103°42'0 0.0
2017-Jun-04 04:28N 01°18' E 103°42'0 0.0
2017-Jun-04 03:55N 01°18' E 103°42'0 0.0
2017-Jun-04 03:28N 01°18' E 103°42'0 0.0
2017-Jun-04 02:58N 01°18' E 103°42'0 0.0
2017-Jun-04 02:28N 01°18' E 103°42'0 0.0
2017-Jun-04 01:58N 01°18' E 103°42'0 0.0
2017-Jun-04 01:28N 01°18' E 103°42'0 0.0
2017-Jun-04 00:58N 01°18' E 103°42'0 0.0
2017-Jun-04 00:25N 01°18' E 103°42'0 0.0
2017-Jun-03 23:58N 01°18' E 103°42'0 0.0
2017-Jun-03 23:28N 01°18' E 103°42'0 0.0
2017-Jun-03 22:58N 01°18' E 103°42'0 0.0
2017-Jun-03 22:22N 01°18' E 103°42'0 0.0
2017-Jun-03 21:58N 01°18' E 103°42'0 0.0
2017-Jun-03 21:28N 01°18' E 103°42'0 0.0
2017-Jun-03 20:52N 01°18' E 103°42'0 0.0
2017-Jun-03 20:28N 01°18' E 103°42'0 0.0
2017-Jun-03 19:58N 01°18' E 103°42'0 0.0
2017-Jun-03 19:19N 01°18' E 103°42'0 0.0
2017-Jun-03 18:58N 01°18' E 103°42'0 0.0
2017-Jun-03 18:25N 01°18' E 103°42'0 0.0
2017-Jun-03 17:58N 01°18' E 103°42'0 0.0
2017-Jun-03 17:25N 01°18' E 103°42'0 0.0
2017-Jun-03 16:58N 01°18' E 103°42'0 0.0
2017-Jun-03 16:22N 01°18' E 103°42'0 0.0
2017-Jun-03 15:58N 01°18' E 103°42'0 0.0
2017-Jun-03 15:28N 01°18' E 103°42'0 0.0
2017-Jun-03 14:55N 01°18' E 103°42'0 0.0
2017-Jun-03 13:58N 01°18' E 103°42'0 0.0
2017-Jun-03 13:25N 01°18' E 103°42'0 0.0
2017-Jun-03 12:58N 01°18' E 103°42'0 0.0
2017-Jun-03 12:28N 01°18' E 103°42'0 0.0
2017-Jun-03 11:58N 01°18' E 103°42'0 0.0
2017-Jun-03 11:28N 01°18' E 103°42'0 0.0
2017-Jun-03 11:00N 01°18' E 103°42'1 1.5
2017-Jun-03 10:30N 01°18' E 103°42'3 6.3
2017-Jun-03 10:00N 01°16' E 103°39'3 6.4
2017-Jun-03 09:30N 01°13' E 103°41'510.2
2017-Jun-03 09:00N 01°16' E 103°45'3 5.8
2017-Jun-03 08:30N 01°14' E 103°48'0 0.1
2017-Jun-03 07:57N 01°14' E 103°48'0 0.2
2017-Jun-03 07:24N 01°14' E 103°48'0 0.0
2017-Jun-03 07:00N 01°14' E 103°48'0 0.0
2017-Jun-03 06:30N 01°14' E 103°48'0 0.0
2017-Jun-03 05:57N 01°14' E 103°48'0 0.0
2017-Jun-03 05:27N 01°14' E 103°48'0 0.0
2017-Jun-03 05:00N 01°14' E 103°48'0 0.0
2017-Jun-03 04:30N 01°14' E 103°48'0 0.0
2017-Jun-03 03:54N 01°14' E 103°48'0 0.0
2017-Jun-03 03:30N 01°14' E 103°48'0 0.0
2017-Jun-03 02:57N 01°14' E 103°48'0 0.0
2017-Jun-03 02:30N 01°14' E 103°48'0 0.1
2017-Jun-03 01:54N 01°14' E 103°48'0 0.0
2017-Jun-03 01:24N 01°14' E 103°48'0 0.0
2017-Jun-03 00:57N 01°14' E 103°48'0 0.0
2017-Jun-03 00:30N 01°14' E 103°48'0 0.0
2017-Jun-03 00:00N 01°14' E 103°48'0 0.0
2017-Jun-02 23:30N 01°14' E 103°48'0 0.0
2017-Jun-02 22:57N 01°14' E 103°48'0 0.0
2017-Jun-02 22:30N 01°14' E 103°48'0 0.1
2017-Jun-02 22:00N 01°14' E 103°48'0 0.1
2017-Jun-02 21:24N 01°14' E 103°48'0 0.0
2017-Jun-02 21:00N 01°14' E 103°48'0 0.0
2017-Jun-02 20:30N 01°14' E 103°48'0 0.0
2017-Jun-02 19:51N 01°14' E 103°48'0 0.0
2017-Jun-02 19:24N 01°14' E 103°48'0 0.0
2017-Jun-02 19:00N 01°14' E 103°48'0 0.0
2017-Jun-02 18:30N 01°14' E 103°48'0 0.0
2017-Jun-02 18:00N 01°14' E 103°48'0 0.0
2017-Jun-02 17:30N 01°14' E 103°48'0 0.0
2017-Jun-02 17:00N 01°14' E 103°48'0 0.0
2017-Jun-02 16:30N 01°14' E 103°48'0 0.0
2017-Jun-02 15:51N 01°14' E 103°48'0 0.0
2017-Jun-02 15:30N 01°14' E 103°48'0 0.0
2017-Jun-02 15:00N 01°14' E 103°48'0 0.0
2017-Jun-02 14:24N 01°14' E 103°48'0 0.0
2017-Jun-02 13:30N 01°14' E 103°48'0 0.0
2017-Jun-02 12:57N 01°14' E 103°48'0 0.0
2017-Jun-02 12:27N 01°14' E 103°48'0 0.0
2017-Jun-02 11:57N 01°14' E 103°48'0 0.0
2017-Jun-02 11:30N 01°14' E 103°48'0 0.1
2017-Jun-02 11:00N 01°14' E 103°48'0 0.1
2017-Jun-02 10:30N 01°14' E 103°48'0 0.0
2017-Jun-02 10:00N 01°14' E 103°48'0 0.1
2017-Jun-02 09:30N 01°14' E 103°48'0 0.0
2017-Jun-02 08:54N 01°14' E 103°48'0 0.0
2017-Jun-02 08:30N 01°14' E 103°48'0 0.1
2017-Jun-02 07:57N 01°14' E 103°48'0 0.0
2017-Jun-02 07:30N 01°14' E 103°48'0 0.0
2017-Jun-02 07:00N 01°14' E 103°48'0 0.0
2017-Jun-02 06:27N 01°14' E 103°48'0 0.0
2017-Jun-02 05:57N 01°14' E 103°48'0 0.0
2017-Jun-02 05:30N 01°14' E 103°48'0 0.0
2017-Jun-02 05:00N 01°14' E 103°48'0 0.0
2017-Jun-02 04:30N 01°14' E 103°48'0 0.0
2017-Jun-02 04:00N 01°14' E 103°48'0 0.0
2017-Jun-02 03:30N 01°14' E 103°48'0 0.0
2017-Jun-02 02:57N 01°14' E 103°48'0 0.0
2017-Jun-02 02:27N 01°14' E 103°48'0 0.0
2017-Jun-02 01:54N 01°14' E 103°48'0 0.0
2017-Jun-02 01:30N 01°14' E 103°48'0 0.0
2017-Jun-02 01:00N 01°14' E 103°48'0 0.0
2017-Jun-02 00:30N 01°14' E 103°48'0 0.0
2017-Jun-02 00:00N 01°14' E 103°48'0 0.1
2017-Jun-01 23:24N 01°14' E 103°48'0 0.0
2017-Jun-01 23:00N 01°14' E 103°48'0 0.0
2017-Jun-01 22:27N 01°14' E 103°48'0 0.1
2017-Jun-01 22:00N 01°14' E 103°48'0 0.1
2017-Jun-01 21:21N 01°14' E 103°48'0 0.0
2017-Jun-01 21:00N 01°14' E 103°48'0 0.0
2017-Jun-01 20:30N 01°14' E 103°48'0 0.0
2017-Jun-01 20:00N 01°14' E 103°48'0 0.0
2017-Jun-01 19:24N 01°14' E 103°48'0 0.0
2017-Jun-01 19:00N 01°14' E 103°48'0 0.0
2017-Jun-01 18:30N 01°14' E 103°48'0 0.1
2017-Jun-01 18:00N 01°14' E 103°48'0 0.1
2017-Jun-01 17:30N 01°14' E 103°48'0 0.1
2017-Jun-01 17:01N 01°14' E 103°48'1 1.6
2017-Jun-01 16:31N 01°14' E 103°47'5 9.2
2017-Jun-01 16:01N 01°13' E 103°52'510.6
2017-Jun-01 15:31N 01°15' E 103°57'3 6.6
2017-Jun-01 15:00N 01°16' E 103°60'2 3.2
2017-Jun-01 14:30N 01°16' E 104°01'  
2017-May-29 03:35N 16°13' E 108°24'212.8
2017-May-29 03:25N 16°14' E 108°22'  
Track history (hours):
 
Tides and Currents Weather Stations Pressure Air Temp Water Temp Dewpoint Dewpoint Depression Visibility Wind Speed Wind Dir Waves Ship Positions

Fu Ning Wan

Last reported at 2017-Jun-04 13:17 UTC. Time now 2017-Jul-24 04:53 UTC.
Position N 01°13' E 103°55'.
Warning: this ship's position is 49 days out of date.

Length 102 m; draft 6.1 m.

Type: Tanker. MMSI: 477003600.

Date/timePositionNaut miles runAvg speedWind from/ knotsBaromVisibWave heightAir tempDewpointWater temp
2017-Jun-04 13:17N 01°13' E 103°55'311.4
2017-Jun-04 13:00N 01°12' E 103°52'510.7
2017-Jun-04 12:30N 01°09' E 103°47'5 9.9
2017-Jun-04 11:57N 01°05' E 103°43'511.0
2017-Jun-04 11:30N 01°02' E 103°39'611.2
2017-Jun-04 10:59N 01°06' E 103°34'4 8.3
2017-Jun-04 10:28N 01°10' E 103°34'4 9.3
2017-Jun-04 10:00N 01°11' E 103°38'3 6.8
2017-Jun-04 09:30N 01°14' E 103°39'3 6.9
2017-Jun-04 09:00N 01°18' E 103°41'1 2.3
2017-Jun-04 08:28N 01°18' E 103°42'0 0.0
2017-Jun-04 07:55N 01°18' E 103°42'0 0.0
2017-Jun-04 07:22N 01°18' E 103°42'0 0.0
2017-Jun-04 06:58N 01°18' E 103°42'0 0.0
2017-Jun-04 06:25N 01°18' E 103°42'0 0.0
2017-Jun-04 05:58N 01°18' E 103°42'0 0.0
2017-Jun-04 05:28N 01°18' E 103°42'0 0.0
2017-Jun-04 04:58N 01°18' E 103°42'0 0.0
2017-Jun-04 04:28N 01°18' E 103°42'0 0.0
2017-Jun-04 03:55N 01°18' E 103°42'0 0.0
2017-Jun-04 03:28N 01°18' E 103°42'0 0.0
2017-Jun-04 02:58N 01°18' E 103°42'0 0.0
2017-Jun-04 02:28N 01°18' E 103°42'0 0.0
2017-Jun-04 01:58N 01°18' E 103°42'0 0.0
2017-Jun-04 01:28N 01°18' E 103°42'0 0.0
2017-Jun-04 00:58N 01°18' E 103°42'0 0.0
2017-Jun-04 00:25N 01°18' E 103°42'0 0.0
2017-Jun-03 23:58N 01°18' E 103°42'0 0.0
2017-Jun-03 23:28N 01°18' E 103°42'0 0.0
2017-Jun-03 22:58N 01°18' E 103°42'0 0.0
2017-Jun-03 22:22N 01°18' E 103°42'0 0.0
2017-Jun-03 21:58N 01°18' E 103°42'0 0.0
2017-Jun-03 21:28N 01°18' E 103°42'0 0.0
2017-Jun-03 20:52N 01°18' E 103°42'0 0.0
2017-Jun-03 20:28N 01°18' E 103°42'0 0.0
2017-Jun-03 19:58N 01°18' E 103°42'0 0.0
2017-Jun-03 19:19N 01°18' E 103°42'0 0.0
2017-Jun-03 18:58N 01°18' E 103°42'0 0.0
2017-Jun-03 18:25N 01°18' E 103°42'0 0.0
2017-Jun-03 17:58N 01°18' E 103°42'0 0.0
2017-Jun-03 17:25N 01°18' E 103°42'0 0.0
2017-Jun-03 16:58N 01°18' E 103°42'0 0.0
2017-Jun-03 16:22N 01°18' E 103°42'0 0.0
2017-Jun-03 15:58N 01°18' E 103°42'0 0.0
2017-Jun-03 15:28N 01°18' E 103°42'0 0.0
2017-Jun-03 14:55N 01°18' E 103°42'0 0.0
2017-Jun-03 13:58N 01°18' E 103°42'0 0.0
2017-Jun-03 13:25N 01°18' E 103°42'0 0.0
2017-Jun-03 12:58N 01°18' E 103°42'0 0.0
2017-Jun-03 12:28N 01°18' E 103°42'0 0.0
2017-Jun-03 11:58N 01°18' E 103°42'0 0.0
2017-Jun-03 11:28N 01°18' E 103°42'0 0.0
2017-Jun-03 11:00N 01°18' E 103°42'1 1.5
2017-Jun-03 10:30N 01°18' E 103°42'3 6.3
2017-Jun-03 10:00N 01°16' E 103°39'3 6.4
2017-Jun-03 09:30N 01°13' E 103°41'510.2
2017-Jun-03 09:00N 01°16' E 103°45'3 5.8
2017-Jun-03 08:30N 01°14' E 103°48'0 0.1
2017-Jun-03 07:57N 01°14' E 103°48'0 0.2
2017-Jun-03 07:24N 01°14' E 103°48'0 0.0
2017-Jun-03 07:00N 01°14' E 103°48'0 0.0
2017-Jun-03 06:30N 01°14' E 103°48'0 0.0
2017-Jun-03 05:57N 01°14' E 103°48'0 0.0
2017-Jun-03 05:27N 01°14' E 103°48'0 0.0
2017-Jun-03 05:00N 01°14' E 103°48'0 0.0
2017-Jun-03 04:30N 01°14' E 103°48'0 0.0
2017-Jun-03 03:54N 01°14' E 103°48'0 0.0
2017-Jun-03 03:30N 01°14' E 103°48'0 0.0
2017-Jun-03 02:57N 01°14' E 103°48'0 0.0
2017-Jun-03 02:30N 01°14' E 103°48'0 0.1
2017-Jun-03 01:54N 01°14' E 103°48'0 0.0
2017-Jun-03 01:24N 01°14' E 103°48'0 0.0
2017-Jun-03 00:57N 01°14' E 103°48'0 0.0
2017-Jun-03 00:30N 01°14' E 103°48'0 0.0
2017-Jun-03 00:00N 01°14' E 103°48'0 0.0
2017-Jun-02 23:30N 01°14' E 103°48'0 0.0
2017-Jun-02 22:57N 01°14' E 103°48'0 0.0
2017-Jun-02 22:30N 01°14' E 103°48'0 0.1
2017-Jun-02 22:00N 01°14' E 103°48'0 0.1
2017-Jun-02 21:24N 01°14' E 103°48'0 0.0
2017-Jun-02 21:00N 01°14' E 103°48'0 0.0
2017-Jun-02 20:30N 01°14' E 103°48'0 0.0
2017-Jun-02 19:51N 01°14' E 103°48'0 0.0
2017-Jun-02 19:24N 01°14' E 103°48'0 0.0
2017-Jun-02 19:00N 01°14' E 103°48'0 0.0
2017-Jun-02 18:30N 01°14' E 103°48'0 0.0
2017-Jun-02 18:00N 01°14' E 103°48'0 0.0
2017-Jun-02 17:30N 01°14' E 103°48'0 0.0
2017-Jun-02 17:00N 01°14' E 103°48'0 0.0
2017-Jun-02 16:30N 01°14' E 103°48'0 0.0
2017-Jun-02 15:51N 01°14' E 103°48'0 0.0
2017-Jun-02 15:30N 01°14' E 103°48'0 0.0
2017-Jun-02 15:00N 01°14' E 103°48'0 0.0
2017-Jun-02 14:24N 01°14' E 103°48'0 0.0
2017-Jun-02 13:30N 01°14' E 103°48'0 0.0
2017-Jun-02 12:57N 01°14' E 103°48'0 0.0
2017-Jun-02 12:27N 01°14' E 103°48'0 0.0
2017-Jun-02 11:57N 01°14' E 103°48'0 0.0
2017-Jun-02 11:30N 01°14' E 103°48'0 0.1
2017-Jun-02 11:00N 01°14' E 103°48'0 0.1
2017-Jun-02 10:30N 01°14' E 103°48'0 0.0
2017-Jun-02 10:00N 01°14' E 103°48'0 0.1
2017-Jun-02 09:30N 01°14' E 103°48'0 0.0
2017-Jun-02 08:54N 01°14' E 103°48'0 0.0
2017-Jun-02 08:30N 01°14' E 103°48'0 0.1
2017-Jun-02 07:57N 01°14' E 103°48'0 0.0
2017-Jun-02 07:30N 01°14' E 103°48'0 0.0
2017-Jun-02 07:00N 01°14' E 103°48'0 0.0
2017-Jun-02 06:27N 01°14' E 103°48'0 0.0
2017-Jun-02 05:57N 01°14' E 103°48'0 0.0
2017-Jun-02 05:30N 01°14' E 103°48'0 0.0
2017-Jun-02 05:00N 01°14' E 103°48'0 0.0
2017-Jun-02 04:30N 01°14' E 103°48'0 0.0
2017-Jun-02 04:00N 01°14' E 103°48'0 0.0
2017-Jun-02 03:30N 01°14' E 103°48'0 0.0
2017-Jun-02 02:57N 01°14' E 103°48'0 0.0
2017-Jun-02 02:27N 01°14' E 103°48'0 0.0
2017-Jun-02 01:54N 01°14' E 103°48'0 0.0
2017-Jun-02 01:30N 01°14' E 103°48'0 0.0
2017-Jun-02 01:00N 01°14' E 103°48'0 0.0
2017-Jun-02 00:30N 01°14' E 103°48'0 0.0
2017-Jun-02 00:00N 01°14' E 103°48'0 0.1
2017-Jun-01 23:24N 01°14' E 103°48'0 0.0
2017-Jun-01 23:00N 01°14' E 103°48'0 0.0
2017-Jun-01 22:27N 01°14' E 103°48'0 0.1
2017-Jun-01 22:00N 01°14' E 103°48'0 0.1
2017-Jun-01 21:21N 01°14' E 103°48'0 0.0
2017-Jun-01 21:00N 01°14' E 103°48'0 0.0
2017-Jun-01 20:30N 01°14' E 103°48'0 0.0
2017-Jun-01 20:00N 01°14' E 103°48'0 0.0
2017-Jun-01 19:24N 01°14' E 103°48'0 0.0
2017-Jun-01 19:00N 01°14' E 103°48'0 0.0
2017-Jun-01 18:30N 01°14' E 103°48'0 0.1
2017-Jun-01 18:00N 01°14' E 103°48'0 0.1
2017-Jun-01 17:30N 01°14' E 103°48'0 0.1
2017-Jun-01 17:01N 01°14' E 103°48'1 1.6
2017-Jun-01 16:31N 01°14' E 103°47'5 9.2
2017-Jun-01 16:01N 01°13' E 103°52'510.6
2017-Jun-01 15:31N 01°15' E 103°57'3 6.6
2017-Jun-01 15:00N 01°16' E 103°60'2 3.2
2017-Jun-01 14:30N 01°16' E 104°01'  
2017-May-29 03:35N 16°13' E 108°24'212.8
2017-May-29 03:25N 16°14' E 108°22'  

Dump ship's entire track history